Time;durP1;ratioP1;P1;durP2;ratioP2;P2;SDS_P1;SDS_P2;PMS_P1;PMS_P2;Temp;Humidity;BMP_temperature;BMP_pressure;BME280_temperature;BME280_humidity;BME280_pressure;Samples;Min_cycle;Max_cycle;Signal;HPM_P1;HPM_P2
2021/08/09 00:01:16;;;;;;;5.00;3.50;;;;;;;16.29;83.62;100469.54;93701;1204;89084;-59
2021/08/09 00:03:27;;;;;;;6.80;4.10;;;;;;;16.35;83.64;100460.84;93686;1204;94078;-59
2021/08/09 00:05:35;;;;;;;4.40;3.30;;;;;;;16.36;83.61;100460.66;93665;1204;80303;-59
2021/08/09 00:07:43;;;;;;;5.20;3.60;;;;;;;16.41;83.69;100464.80;93715;1204;81799;-59
2021/08/09 00:09:54;;;;;;;6.40;3.50;;;;;;;16.49;83.68;100465.11;93685;1204;98440;-61
2021/08/09 00:12:02;;;;;;;7.10;3.90;;;;;;;16.54;83.75;100465.10;93715;1197;88114;-62
2021/08/09 00:14:09;;;;;;;4.70;3.40;;;;;;;16.55;83.70;100470.98;93680;1204;94292;-62
2021/08/09 00:16:17;;;;;;;4.90;3.20;;;;;;;16.57;83.73;100469.40;93672;1196;79706;-62
2021/08/09 00:18:28;;;;;;;6.00;3.30;;;;;;;16.60;83.76;100472.23;93717;1196;81522;-62
2021/08/09 00:20:38;;;;;;;6.40;3.50;;;;;;;16.63;83.66;100473.91;93730;1204;99829;-62
2021/08/09 00:22:46;;;;;;;5.80;3.70;;;;;;;16.64;83.72;100473.27;93809;1199;87619;-62
2021/08/09 00:24:54;;;;;;;5.00;3.50;;;;;;;16.64;83.74;100477.85;93687;1203;93950;-59
2021/08/09 00:27:01;;;;;;;4.70;3.40;;;;;;;16.61;83.69;100479.14;93737;1203;80796;-58
2021/08/09 00:29:14;;;;;;;4.70;3.60;;;;;;;16.63;83.70;100483.65;93800;1196;82341;-59
2021/08/09 00:31:22;;;;;;;5.60;3.10;;;;;;;16.64;83.70;100487.09;93689;1204;98759;-62
2021/08/09 00:33:30;;;;;;;7.80;4.50;;;;;;;16.65;83.73;100493.29;93722;1197;87981;-62
2021/08/09 00:35:38;;;;;;;6.60;3.30;;;;;;;16.66;83.77;100500.73;93796;1195;92798;-59
2021/08/09 00:37:45;;;;;;;6.00;3.30;;;;;;;16.64;83.84;100508.56;93780;1196;80044;-59
2021/08/09 00:39:53;;;;;;;6.60;3.30;;;;;;;16.64;83.86;100506.98;93723;1203;80747;-60
2021/08/09 00:42:01;;;;;;;5.10;3.40;;;;;;;16.66;83.82;100506.15;93732;1202;100155;-59
2021/08/09 00:44:09;;;;;;;5.50;3.30;;;;;;;16.65;83.85;100503.22;93777;1203;88574;-59
2021/08/09 00:46:17;;;;;;;6.90;3.60;;;;;;;16.68;83.89;100502.55;93775;1202;94207;-63
2021/08/09 00:48:27;;;;;;;4.90;3.80;;;;;;;16.70;83.95;100503.16;93723;1196;79921;-63
2021/08/09 00:50:35;;;;;;;8.20;3.60;;;;;;;16.71;83.90;100500.39;93768;1203;81319;-63
2021/08/09 00:52:43;;;;;;;4.30;3.70;;;;;;;16.72;83.99;100502.13;93784;1202;100080;-63
2021/08/09 00:54:51;;;;;;;5.90;3.90;;;;;;;16.75;84.10;100494.55;93786;1202;86372;-59
2021/08/09 00:56:58;;;;;;;4.90;3.80;;;;;;;16.77;84.02;100493.06;93760;1202;93975;-59
2021/08/09 00:59:06;;;;;;;4.80;3.70;;;;;;;16.81;84.03;100488.70;93764;1203;81017;-59
2021/08/09 01:01:14;;;;;;;4.40;3.80;;;;;;;16.85;83.99;100483.39;93747;1203;82051;-63
2021/08/09 01:03:21;;;;;;;6.00;3.70;;;;;;;16.89;83.92;100480.82;93714;1203;99863;-63
2021/08/09 01:05:29;;;;;;;4.80;4.20;;;;;;;16.90;83.90;100484.96;93768;1203;89165;-63
2021/08/09 01:07:48;;;;;;;4.50;3.50;;;;;;;16.91;83.93;100486.38;93769;1202;93273;-63
2021/08/09 01:10:03;;;;;;;5.20;3.80;;;;;;;16.94;83.95;100484.11;93718;1202;79887;-59
2021/08/09 01:12:19;;;;;;;4.60;3.50;;;;;;;16.96;83.90;100477.09;93764;1203;80189;-59
2021/08/09 01:14:52;;;;;;;6.50;3.80;;;;;;;16.99;83.95;100475.45;93750;1202;99230;-59
2021/08/09 01:17:02;;;;;;;6.60;4.40;;;;;;;17.05;83.98;100469.36;93783;1203;88068;-59
2021/08/09 01:19:24;;;;;;;5.10;4.70;;;;;;;17.12;83.97;100468.65;93760;1202;93633;-59
2021/08/09 01:21:35;;;;;;;6.50;4.80;;;;;;;17.21;83.96;100469.24;93721;1202;80915;-63
2021/08/09 01:24:00;;;;;;;6.60;4.60;;;;;;;17.27;83.88;100470.91;93818;1196;81089;-63
2021/08/09 01:26:17;;;;;;;5.40;4.80;;;;;;;17.33;83.80;100468.95;93778;1202;100390;-59
2021/08/09 01:28:29;;;;;;;6.10;4.70;;;;;;;17.39;83.73;100476.42;93785;1203;87923;-59
2021/08/09 01:30:39;;;;;;;5.60;4.30;;;;;;;17.42;83.75;100470.00;93785;1203;93074;-59
2021/08/09 01:32:49;;;;;;;4.80;4.20;;;;;;;17.42;83.71;100461.01;93765;1202;82009;-59
2021/08/09 01:34:58;;;;;;;5.10;4.40;;;;;;;17.43;83.60;100459.06;93797;1203;82173;-62
2021/08/09 01:37:06;;;;;;;5.40;4.80;;;;;;;17.46;83.57;100463.73;93747;1203;99589;-62
2021/08/09 01:39:19;;;;;;;6.00;5.40;;;;;;;17.48;83.59;100459.95;93747;1196;85800;-62
2021/08/09 01:41:29;;;;;;;5.90;5.00;;;;;;;17.47;83.51;100460.21;93728;1203;93585;-58
2021/08/09 01:43:38;;;;;;;6.70;5.00;;;;;;;17.50;83.41;100467.06;93772;1203;81028;-58
2021/08/09 01:45:46;;;;;;;6.20;5.20;;;;;;;17.52;83.38;100466.00;93751;1189;80439;-61
2021/08/09 01:47:59;;;;;;;5.20;4.30;;;;;;;17.54;83.28;100466.08;93764;1203;99786;-62
2021/08/09 01:50:10;;;;;;;7.00;4.70;;;;;;;17.57;83.30;100475.05;93756;1203;87940;-63
2021/08/09 01:52:20;;;;;;;6.80;4.80;;;;;;;17.61;83.26;100473.66;93811;1203;94139;-63
2021/08/09 01:54:31;;;;;;;5.30;4.50;;;;;;;17.62;83.30;100476.38;93719;1203;81233;-63
2021/08/09 01:56:41;;;;;;;5.40;4.50;;;;;;;17.61;83.23;100481.31;93735;1202;81700;-58
2021/08/09 01:58:51;;;;;;;6.00;4.50;;;;;;;17.58;83.19;100481.34;93743;1202;97764;-58
2021/08/09 02:00:59;;;;;;;11.30;5.80;;;;;;;17.60;83.18;100482.45;93787;1202;86726;-58
2021/08/09 02:03:06;;;;;;;5.70;5.00;;;;;;;17.63;83.23;100481.05;93738;1203;94295;-58
2021/08/09 02:05:17;;;;;;;6.20;5.00;;;;;;;17.65;83.25;100486.96;93755;1203;79421;-62
2021/08/09 02:07:25;;;;;;;6.00;5.10;;;;;;;17.65;83.19;100489.02;93805;1189;80261;-62
2021/08/09 02:09:41;;;;;;;5.40;4.60;;;;;;;17.64;83.12;100488.23;93761;1202;99718;-62
2021/08/09 02:11:55;;;;;;;7.40;4.90;;;;;;;17.64;83.08;100484.91;93744;1203;87197;-62
2021/08/09 02:14:07;;;;;;;5.60;4.90;;;;;;;17.65;83.10;100478.98;93782;1196;92427;-62
2021/08/09 02:16:20;;;;;;;7.10;4.60;;;;;;;17.64;83.09;100481.13;93731;1202;79539;-62
2021/08/09 02:18:34;;;;;;;7.90;4.60;;;;;;;17.65;83.12;100476.50;93757;1203;82798;-62
2021/08/09 02:20:45;;;;;;;5.10;3.80;;;;;;;17.65;83.14;100473.94;93773;1203;100191;-58
2021/08/09 02:22:58;;;;;;;6.20;4.40;;;;;;;17.62;83.15;100476.70;93743;1202;88316;-58
2021/08/09 02:25:12;;;;;;;8.40;4.30;;;;;;;17.61;83.05;100477.71;93644;1204;92973;-63
2021/08/09 02:27:20;;;;;;;;;;;;;;;17.62;83.05;100484.19;93763;1196;79214;-63
2021/08/09 02:29:33;;;;;;;5.10;4.00;;;;;;;17.61;83.10;100485.63;93750;1202;79233;-63
2021/08/09 02:31:44;;;;;;;6.40;4.20;;;;;;;17.60;83.16;100489.81;93734;1202;99644;-58
2021/08/09 02:33:53;;;;;;;6.70;3.60;;;;;;;17.58;83.10;100490.84;93803;1199;86514;-59
2021/08/09 02:36:03;;;;;;;6.10;4.30;;;;;;;17.55;83.04;100491.94;93729;1202;95080;-59
2021/08/09 02:38:13;;;;;;;5.60;4.10;;;;;;;17.57;83.08;100498.80;93768;1203;80166;-59
2021/08/09 02:40:25;;;;;;;5.60;4.50;;;;;;;17.58;83.06;100501.95;93750;1203;82932;-59
2021/08/09 02:42:32;;;;;;;4.90;3.80;;;;;;;17.59;83.11;100502.27;93737;1203;99794;-59
2021/08/09 02:44:44;;;;;;;4.30;3.90;;;;;;;17.61;83.06;100510.89;93753;1204;88192;-60
2021/08/09 02:46:53;;;;;;;5.00;3.80;;;;;;;17.63;83.08;100524.05;93728;1202;94195;-59
2021/08/09 02:49:02;;;;;;;7.10;4.00;;;;;;;17.63;83.06;100543.83;93779;1203;80925;-59
2021/08/09 02:51:12;;;;;;;6.70;5.70;;;;;;;17.61;83.10;100535.15;93762;1203;82024;-64
2021/08/09 02:53:29;;;;;;;5.90;4.80;;;;;;;17.61;83.05;100540.44;93750;1202;98856;-63
2021/08/09 02:55:37;;;;;;;5.90;4.10;;;;;;;17.57;83.04;100542.27;93816;1195;87055;-59
2021/08/09 02:57:47;;;;;;;5.00;4.00;;;;;;;17.56;83.06;100550.25;93731;1203;93508;-59
2021/08/09 02:59:55;;;;;;;5.40;3.70;;;;;;;17.54;83.14;100556.30;93749;1196;80320;-64
2021/08/09 03:02:06;;;;;;;5.70;3.50;;;;;;;17.54;83.10;100556.42;93743;1203;82114;-63
2021/08/09 03:04:19;;;;;;;4.40;4.00;;;;;;;17.52;83.13;100547.93;93704;1203;98368;-64
2021/08/09 03:06:27;;;;;;;5.00;3.90;;;;;;;17.51;83.16;100544.33;93777;1203;88171;-63
2021/08/09 03:08:37;;;;;;;4.40;3.90;;;;;;;17.47;83.09;100549.80;93721;1204;94810;-63
2021/08/09 03:10:44;;;;;;;5.10;3.70;;;;;;;17.46;83.06;100556.97;93745;1203;81118;-64
2021/08/09 03:13:00;;;;;;;6.80;3.50;;;;;;;17.43;83.04;100564.14;93674;1196;79305;-64
2021/08/09 03:15:11;;;;;;;5.10;3.80;;;;;;;17.37;83.05;100564.86;93717;1204;98703;-60
2021/08/09 03:17:19;;;;;;;5.90;4.00;;;;;;;17.33;83.10;100569.02;93790;1203;87364;-59
2021/08/09 03:19:28;;;;;;;4.50;3.70;;;;;;;17.26;83.09;100572.18;93773;1205;93603;-58
2021/08/09 03:21:36;;;;;;;6.40;3.60;;;;;;;17.19;83.06;100571.38;93756;1195;80067;-63
2021/08/09 03:23:44;;;;;;;5.40;3.50;;;;;;;17.11;83.17;100577.91;93761;1203;80699;-62
2021/08/09 03:25:51;;;;;;;3.90;3.40;;;;;;;17.10;83.25;100584.55;93765;1202;99176;-58
2021/08/09 03:27:59;;;;;;;5.20;3.60;;;;;;;17.05;83.21;100586.15;93803;1202;88173;-58
2021/08/09 03:30:09;;;;;;;4.90;3.70;;;;;;;16.99;83.24;100589.62;93759;1202;94231;-64
2021/08/09 03:32:20;;;;;;;4.70;4.20;;;;;;;16.93;83.26;100590.40;93792;1203;81280;-63
2021/08/09 03:34:28;;;;;;;4.00;3.60;;;;;;;16.88;83.37;100589.81;93758;1203;80687;-64
2021/08/09 03:36:37;;;;;;;3.90;3.40;;;;;;;16.88;83.47;100596.72;93727;1203;99533;-63
2021/08/09 03:38:44;;;;;;;5.30;3.90;;;;;;;16.89;83.56;100600.93;93746;1202;87792;-63
2021/08/09 03:40:55;;;;;;;5.60;4.10;;;;;;;16.90;83.68;100607.40;93728;1204;93847;-59
2021/08/09 03:43:02;;;;;;;5.10;4.60;;;;;;;16.90;83.76;100607.01;93777;1196;79488;-58
2021/08/09 03:45:12;;;;;;;4.40;3.50;;;;;;;16.95;83.73;100603.81;93777;1202;82825;-59
2021/08/09 03:47:20;;;;;;;6.10;4.00;;;;;;;16.99;83.70;100604.52;93752;1199;97991;-59
2021/08/09 03:49:27;;;;;;;5.40;4.10;;;;;;;16.95;83.72;100607.50;93760;1203;87474;-58
2021/08/09 03:51:35;;;;;;;5.20;4.10;;;;;;;17.00;83.77;100606.13;93783;1202;93254;-58
2021/08/09 03:53:43;;;;;;;4.30;3.90;;;;;;;16.98;83.70;100609.83;93772;1196;77964;-58
2021/08/09 03:55:53;;;;;;;5.10;3.90;;;;;;;16.97;83.81;100611.94;93741;1196;79587;-59
2021/08/09 03:58:01;;;;;;;4.60;4.10;;;;;;;16.99;83.77;100606.83;93711;1204;100483;-58
2021/08/09 04:00:12;;;;;;;5.30;3.80;;;;;;;17.01;83.68;100602.62;93808;1203;87490;-63
2021/08/09 04:02:24;;;;;;;5.00;4.10;;;;;;;17.07;83.73;100601.21;93774;1203;93816;-63
2021/08/09 04:04:32;;;;;;;4.50;4.00;;;;;;;17.16;83.75;100604.14;93660;1204;79314;-63
2021/08/09 04:06:40;;;;;;;6.30;4.40;;;;;;;17.21;83.82;100597.52;93755;1199;80485;-64
2021/08/09 04:08:50;;;;;;;6.30;4.50;;;;;;;17.26;83.73;100596.71;93740;1203;99200;-63
2021/08/09 04:10:57;;;;;;;6.10;3.80;;;;;;;17.35;83.83;100600.05;93784;1203;88031;-63
2021/08/09 04:13:05;;;;;;;7.10;4.10;;;;;;;17.47;83.82;100604.15;93742;1203;94550;-63
2021/08/09 04:15:13;;;;;;;6.10;4.20;;;;;;;17.58;83.89;100604.24;93759;1203;78488;-63
2021/08/09 04:17:24;;;;;;;5.90;4.10;;;;;;;17.69;83.99;100607.93;93757;1203;80350;-63
2021/08/09 04:19:32;;;;;;;4.70;3.80;;;;;;;17.84;83.92;100606.83;93766;1203;99963;-63
2021/08/09 04:21:40;;;;;;;4.50;3.70;;;;;;;17.95;83.78;100608.11;93729;1203;88544;-58
2021/08/09 04:23:48;;;;;;;5.20;3.80;;;;;;;18.05;83.67;100608.20;93712;1205;94178;-59
2021/08/09 04:25:56;;;;;;;5.90;4.00;;;;;;;18.10;83.58;100614.52;93739;1203;79778;-63
2021/08/09 04:28:07;;;;;;;5.90;4.50;;;;;;;18.17;83.44;100619.05;93756;1203;80663;-63
2021/08/09 04:30:15;;;;;;;4.70;3.80;;;;;;;18.26;83.31;100617.58;93792;1203;99552;-59
2021/08/09 04:32:23;;;;;;;6.20;3.80;;;;;;;18.38;83.25;100615.03;93754;1197;86790;-59
2021/08/09 04:34:33;;;;;;;7.20;4.00;;;;;;;18.47;83.21;100620.30;93733;1200;93971;-59
2021/08/09 04:36:41;;;;;;;4.30;3.90;;;;;;;18.51;82.91;100622.64;93744;1198;78068;-59
2021/08/09 04:38:48;;;;;;;6.30;4.20;;;;;;;18.54;82.84;100623.30;93781;1203;81626;-59
2021/08/09 04:40:59;;;;;;;6.30;3.90;;;;;;;18.59;82.89;100626.54;93737;1203;99580;-59
2021/08/09 04:43:07;;;;;;;4.60;3.80;;;;;;;18.61;82.77;100626.36;93753;1195;86969;-59
2021/08/09 04:45:15;;;;;;;5.30;4.10;;;;;;;18.69;82.65;100627.29;93731;1203;92081;-59
2021/08/09 04:47:23;;;;;;;5.70;4.40;;;;;;;18.86;82.41;100625.44;93763;1196;80366;-59
2021/08/09 04:49:34;;;;;;;4.40;3.50;;;;;;;18.99;82.18;100625.28;93779;1188;81093;-59
2021/08/09 04:51:41;;;;;;;4.40;3.90;;;;;;;19.07;82.05;100620.30;93754;1203;99198;-63
2021/08/09 04:53:49;;;;;;;6.60;4.30;;;;;;;19.59;82.55;100618.56;93758;1205;89015;-63
2021/08/09 04:55:56;;;;;;;4.10;3.70;;;;;;;21.12;82.62;100617.36;93794;1203;93749;-64
2021/08/09 04:58:04;;;;;;;5.40;3.90;;;;;;;22.32;80.74;100618.38;93755;1196;80491;-63
2021/08/09 05:00:17;;;;;;;5.90;4.10;;;;;;;22.76;78.57;100615.64;93710;1196;80615;-64
2021/08/09 05:02:24;;;;;;;7.30;4.30;;;;;;;22.90;78.04;100616.45;93780;1196;97965;-64
2021/08/09 05:04:34;;;;;;;5.10;3.80;;;;;;;23.88;77.13;100609.60;93740;1203;89023;-64
2021/08/09 05:06:42;;;;;;;4.40;3.60;;;;;;;24.99;75.59;100612.61;93734;1195;91660;-64
2021/08/09 05:08:50;;;;;;;5.10;3.60;;;;;;;25.89;73.18;100610.25;93740;1189;79068;-64
2021/08/09 05:10:57;;;;;;;6.30;3.80;;;;;;;26.05;71.69;100610.94;93828;1203;82065;-59
2021/08/09 05:13:05;;;;;;;6.40;4.30;;;;;;;26.13;70.41;100608.36;93690;1205;98414;-59
2021/08/09 05:15:14;;;;;;;5.00;3.80;;;;;;;25.77;69.41;100613.23;93777;1203;87692;-59
2021/08/09 05:17:22;;;;;;;58.90;50.10;;;;;;;25.38;68.77;100612.27;93776;1203;94222;-59
2021/08/09 05:19:30;;;;;;;39.80;35.70;;;;;;;25.35;68.58;100612.18;93762;1203;79436;-59
2021/08/09 05:21:39;;;;;;;6.90;6.10;;;;;;;25.59;67.79;100613.55;93771;1203;81836;-59
2021/08/09 05:23:47;;;;;;;5.90;4.00;;;;;;;26.30;67.26;100617.05;93751;1197;99442;-59
2021/08/09 05:25:54;;;;;;;6.40;3.70;;;;;;;26.38;66.19;100611.47;93749;1196;86409;-64
2021/08/09 05:28:02;;;;;;;5.20;3.60;;;;;;;26.60;65.59;100615.33;93737;1203;94265;-63
2021/08/09 05:30:12;;;;;;;5.10;3.30;;;;;;;26.98;64.65;100620.17;93736;1203;79376;-59
2021/08/09 05:32:20;;;;;;;4.90;3.40;;;;;;;27.41;63.88;100620.95;93781;1203;81279;-59
2021/08/09 05:34:27;;;;;;;5.10;3.00;;;;;;;27.85;62.80;100622.29;93760;1203;97660;-59
2021/08/09 05:36:38;;;;;;;4.80;3.30;;;;;;;28.24;62.06;100620.44;93763;1203;87689;-64
2021/08/09 05:38:45;;;;;;;5.80;3.10;;;;;;;28.77;61.38;100626.00;93765;1203;93870;-64
2021/08/09 05:40:53;;;;;;;5.70;3.40;;;;;;;29.26;60.20;100624.36;93716;1204;80020;-64
2021/08/09 05:43:01;;;;;;;6.70;3.20;;;;;;;29.74;59.13;100626.56;93757;1203;82635;-64
2021/08/09 05:45:11;;;;;;;4.60;2.70;;;;;;;30.64;57.58;100625.90;93715;1205;99514;-64
2021/08/09 05:47:19;;;;;;;3.40;2.80;;;;;;;30.81;56.16;100629.70;93731;1203;87837;-63
2021/08/09 05:49:26;;;;;;;4.70;3.00;;;;;;;30.82;55.62;100627.27;93784;1203;93782;-63
2021/08/09 05:51:39;;;;;;;3.60;3.00;;;;;;;31.29;54.88;100627.84;93754;1203;79860;-62
2021/08/09 05:53:46;;;;;;;4.80;3.50;;;;;;;32.07;53.54;100625.02;93754;1203;82018;-63
2021/08/09 05:55:54;;;;;;;4.80;3.20;;;;;;;32.38;52.24;100625.15;93742;1203;100400;-58
2021/08/09 05:58:02;;;;;;;5.30;3.60;;;;;;;32.80;51.36;100624.77;93780;1203;87511;-58
2021/08/09 06:00:13;;;;;;;6.50;3.10;;;;;;;33.04;50.62;100623.39;93762;1203;93812;-58
2021/08/09 06:02:21;;;;;;;4.90;3.00;;;;;;;32.57;50.12;100633.05;93747;1190;78356;-58
2021/08/09 06:04:33;;;;;;;6.30;3.40;;;;;;;31.49;50.07;100632.19;93685;1204;81321;-58
2021/08/09 06:06:41;;;;;;;4.30;3.40;;;;;;;31.02;50.35;100629.83;93731;1205;98140;-58
2021/08/09 06:08:49;;;;;;;5.00;3.50;;;;;;;31.45;50.15;100635.31;93730;1203;88201;-58
2021/08/09 06:10:57;;;;;;;7.30;3.40;;;;;;;31.79;49.76;100639.48;93703;1203;94493;-63
2021/08/09 06:13:05;;;;;;;4.30;3.00;;;;;;;31.75;49.16;100637.11;93752;1205;79963;-63
2021/08/09 06:15:13;;;;;;;4.10;3.00;;;;;;;31.24;49.57;100637.36;93741;1203;80616;-64
2021/08/09 06:17:24;;;;;;;3.10;2.70;;;;;;;31.14;49.78;100638.43;93691;1205;99333;-64
2021/08/09 06:19:35;;;;;;;3.40;2.70;;;;;;;30.62;49.67;100643.23;93749;1196;87293;-64
2021/08/09 06:21:43;;;;;;;3.70;2.90;;;;;;;29.70;50.48;100645.09;93693;1198;92856;-64
2021/08/09 06:23:50;;;;;;;5.00;3.30;;;;;;;28.84;51.10;100641.89;93780;1204;78952;-64
2021/08/09 06:25:58;;;;;;;4.40;3.10;;;;;;;28.48;51.42;100644.09;93745;1203;81297;-58
2021/08/09 06:28:06;;;;;;;5.40;3.00;;;;;;;28.18;52.05;100646.48;93749;1203;100031;-59
2021/08/09 06:30:17;;;;;;;4.60;3.00;;;;;;;27.82;52.37;100644.27;93747;1203;88822;-58
2021/08/09 06:32:25;;;;;;;3.70;3.00;;;;;;;27.65;52.75;100647.33;93714;1203;94403;-59
2021/08/09 06:34:35;;;;;;;3.00;2.70;;;;;;;27.27;53.37;100646.73;93728;1203;80101;-58
2021/08/09 06:36:43;;;;;;;4.90;2.70;;;;;;;26.81;54.42;100650.88;93760;1203;81121;-63
2021/08/09 06:38:53;;;;;;;4.20;2.90;;;;;;;26.65;55.10;100649.60;93755;1202;98423;-63
2021/08/09 06:41:01;;;;;;;4.70;2.80;;;;;;;26.85;55.42;100648.80;93803;1203;88157;-63
2021/08/09 06:43:09;;;;;;;4.30;3.00;;;;;;;26.83;55.17;100651.30;93704;1203;93854;-63
2021/08/09 06:45:17;;;;;;;3.90;3.20;;;;;;;26.51;55.59;100649.44;93758;1203;79684;-58
2021/08/09 06:47:26;;;;;;;4.40;3.00;;;;;;;26.22;56.33;100653.95;93755;1196;80166;-58
2021/08/09 06:49:36;;;;;;;5.20;3.30;;;;;;;26.05;56.90;100653.96;93731;1203;100494;-62
2021/08/09 06:51:44;;;;;;;3.40;3.00;;;;;;;25.93;57.35;100654.89;93750;1203;87809;-58
2021/08/09 06:53:54;;;;;;;3.60;2.70;;;;;;;26.01;57.45;100655.48;93709;1203;93577;-59
2021/08/09 06:56:02;;;;;;;3.70;2.40;;;;;;;26.01;57.80;100659.41;93682;1203;78992;-70
2021/08/09 06:58:10;;;;;;;2.90;2.30;;;;;;;25.81;57.89;100655.65;93771;1203;81906;-70
2021/08/09 07:00:21;;;;;;;4.00;2.60;;;;;;;25.56;57.99;100662.20;93714;1203;100044;-70
2021/08/09 07:02:28;;;;;;;4.00;2.80;;;;;;;25.37;58.05;100661.23;93742;1203;87245;-70
2021/08/09 07:04:36;;;;;;;4.60;2.60;;;;;;;25.43;58.24;100668.19;93715;1203;94538;-66
2021/08/09 07:06:44;;;;;;;4.40;2.30;;;;;;;25.50;58.28;100669.21;93745;1196;79009;-65
2021/08/09 07:08:53;;;;;;;6.00;2.60;;;;;;;25.39;58.51;100672.74;93747;1203;82536;-64
2021/08/09 07:11:01;;;;;;;3.90;2.50;;;;;;;25.31;58.60;100676.02;93779;1204;99334;-70
2021/08/09 07:13:09;;;;;;;4.00;2.70;;;;;;;25.48;58.93;100681.52;93770;1196;86681;-69
2021/08/09 07:15:17;;;;;;;3.60;2.60;;;;;;;26.15;58.61;100680.16;93797;1196;93446;-64
2021/08/09 07:17:27;;;;;;;45.60;41.20;;;;;;;27.28;57.57;100684.11;93720;1196;77604;-65
2021/08/09 07:19:38;;;;;;;18.60;16.90;;;;;;;28.29;56.50;100681.15;93756;1203;81757;-68
2021/08/09 07:21:45;;;;;;;5.90;4.70;;;;;;;29.84;55.16;100676.86;93761;1203;100609;-65
2021/08/09 07:23:53;;;;;;;3.80;2.70;;;;;;;31.25;53.48;100680.43;93788;1202;88235;-65
2021/08/09 07:26:01;;;;;;;3.40;2.50;;;;;;;32.31;51.47;100684.02;93729;1196;93185;-65
2021/08/09 07:28:12;;;;;;;3.50;2.60;;;;;;;33.08;50.05;100680.93;93801;1202;79438;-65
2021/08/09 07:30:22;;;;;;;3.70;2.70;;;;;;;33.61;48.98;100682.86;93722;1197;80323;-66
2021/08/09 07:32:30;;;;;;;5.20;2.40;;;;;;;33.95;48.14;100682.42;93779;1203;100618;-66
2021/08/09 07:34:41;;;;;;;3.30;2.30;;;;;;;34.41;47.06;100686.74;93751;1203;87327;-68
2021/08/09 07:36:52;;;;;;;3.90;2.70;;;;;;;34.82;46.03;100682.88;93787;1203;94388;-69
2021/08/09 07:39:04;;;;;;;5.20;2.40;;;;;;;35.07;45.34;100684.66;93753;1203;78496;-67
2021/08/09 07:41:15;;;;;;;3.30;2.00;;;;;;;35.67;44.30;100682.25;93774;1189;80831;-69
2021/08/09 07:43:26;;;;;;;2.50;2.10;;;;;;;35.99;43.49;100685.17;93745;1203;98308;-69
2021/08/09 07:45:34;;;;;;;3.80;2.10;;;;;;;36.37;42.97;100686.34;93757;1203;88100;-65
2021/08/09 07:47:43;;;;;;;4.20;1.90;;;;;;;36.66;41.96;100685.65;93704;1204;94242;-64
2021/08/09 07:49:51;;;;;;;3.00;1.80;;;;;;;36.80;40.76;100685.81;93696;1204;79649;-65
2021/08/09 07:52:02;;;;;;;2.60;2.00;;;;;;;36.92;40.43;100688.09;93747;1189;80834;-64
2021/08/09 07:54:10;;;;;;;5.80;2.10;;;;;;;37.10;40.52;100693.45;93678;1205;98406;-65
2021/08/09 07:56:18;;;;;;;3.90;2.30;;;;;;;37.29;39.72;100696.79;93724;1203;87806;-69
2021/08/09 07:58:29;;;;;;;3.00;1.70;;;;;;;37.39;39.33;100697.39;93736;1203;93556;-70
2021/08/09 08:00:37;;;;;;;2.40;1.80;;;;;;;37.38;39.15;100694.00;93714;1203;79989;-70
2021/08/09 08:02:45;;;;;;;2.40;2.00;;;;;;;37.16;38.60;100691.85;93771;1203;81444;-70
2021/08/09 08:04:53;;;;;;;2.70;1.70;;;;;;;37.22;38.10;100697.17;93734;1203;100858;-69
2021/08/09 08:07:00;;;;;;;2.30;1.90;;;;;;;37.36;38.34;100696.83;93749;1203;88542;-69
2021/08/09 08:09:08;;;;;;;3.80;1.90;;;;;;;37.35;38.20;100696.88;93771;1203;93954;-70
2021/08/09 08:11:16;;;;;;;2.20;1.70;;;;;;;37.19;37.20;100698.54;93736;1203;77854;-66
2021/08/09 08:13:28;;;;;;;4.30;2.00;;;;;;;37.13;37.63;100699.89;93766;1200;82150;-66
2021/08/09 08:15:36;;;;;;;3.90;2.10;;;;;;;37.17;37.42;100700.23;93734;1203;97861;-69
2021/08/09 08:17:46;;;;;;;3.50;2.20;;;;;;;37.31;36.98;100702.73;93718;1203;87984;-69
2021/08/09 08:19:57;;;;;;;2.50;1.90;;;;;;;37.14;36.76;100702.11;93709;1203;94205;-66
2021/08/09 08:22:08;;;;;;;3.70;1.70;;;;;;;37.12;36.87;100705.04;93719;1203;80789;-66
2021/08/09 08:24:20;;;;;;;4.20;1.80;;;;;;;37.04;36.65;100707.79;93713;1203;82343;-70
2021/08/09 08:26:30;;;;;;;2.80;1.80;;;;;;;36.98;36.31;100709.68;93743;1203;99886;-74
2021/08/09 08:28:41;;;;;;;3.80;1.70;;;;;;;36.94;36.32;100710.20;93763;1203;88890;-66
2021/08/09 08:30:49;;;;;;;5.90;2.00;;;;;;;37.04;36.15;100709.30;93733;1203;93185;-65
2021/08/09 08:32:57;;;;;;;1.90;1.60;;;;;;;36.97;36.15;100710.15;93777;1203;79150;-66
2021/08/09 08:35:05;;;;;;;2.10;1.60;;;;;;;36.98;35.88;100707.98;93749;1203;82080;-62
2021/08/09 08:37:16;;;;;;;2.40;1.80;;;;;;;37.11;35.37;100710.65;93775;1203;100934;-66
2021/08/09 08:39:23;;;;;;;1.80;1.60;;;;;;;37.04;35.52;100712.52;93752;1203;86748;-65
2021/08/09 08:41:35;;;;;;;1.70;1.40;;;;;;;37.03;35.69;100711.27;93721;1203;95350;-62
2021/08/09 08:43:45;;;;;;;2.50;1.50;;;;;;;37.06;35.44;100714.14;93759;1203;79271;-65
2021/08/09 08:45:57;;;;;;;3.60;1.50;;;;;;;37.13;35.18;100718.27;93803;1203;82079;-60
2021/08/09 08:48:07;;;;;;;2.00;1.50;;;;;;;37.20;35.21;100720.94;93764;1196;98005;-65
2021/08/09 08:50:21;;;;;;;2.90;1.30;;;;;;;36.95;35.18;100722.58;93762;1203;87435;-65
2021/08/09 08:52:29;;;;;;;2.80;1.40;;;;;;;36.76;34.97;100728.50;93781;1203;93285;-60
2021/08/09 08:54:39;;;;;;;2.60;1.50;;;;;;;36.75;35.07;100728.62;93732;1196;78957;-61
2021/08/09 08:56:48;;;;;;;2.70;1.60;;;;;;;36.70;34.99;100732.41;93800;1203;81466;-65
2021/08/09 08:58:55;;;;;;;2.10;1.30;;;;;;;36.61;34.79;100730.16;93745;1203;99687;-66
2021/08/09 09:01:03;;;;;;;2.40;1.30;;;;;;;36.50;35.19;100732.14;93757;1203;87123;-65
2021/08/09 09:03:21;;;;;;;2.00;1.80;;;;;;;36.59;34.95;100732.10;93706;1204;93082;-59
2021/08/09 09:05:35;;;;;;;2.10;1.50;;;;;;;36.42;35.28;100732.80;93752;1196;78184;-61
2021/08/09 09:07:49;;;;;;;3.40;1.50;;;;;;;36.34;34.98;100732.15;93744;1203;81573;-61
2021/08/09 09:10:15;;;;;;;2.20;1.40;;;;;;;36.37;35.19;100733.33;93741;1203;97942;-61
2021/08/09 09:12:23;;;;;;;3.30;1.90;;;;;;;36.35;34.87;100732.27;93781;1203;88051;-63
2021/08/09 09:14:35;;;;;;;4.20;1.80;;;;;;;36.22;34.76;100732.56;93734;1203;93404;-66
2021/08/09 09:16:51;;;;;;;2.50;1.90;;;;;;;36.01;34.76;100737.34;93747;1203;79547;-66
2021/08/09 09:19:00;;;;;;;3.00;2.00;;;;;;;35.93;34.56;100741.80;93758;1189;81231;-65
2021/08/09 09:21:13;;;;;;;3.90;2.10;;;;;;;35.76;34.61;100744.35;93788;1203;99505;-65
2021/08/09 09:23:25;;;;;;;5.80;2.00;;;;;;;35.64;34.56;100751.05;93767;1196;86011;-70
2021/08/09 09:25:36;;;;;;;2.70;1.80;;;;;;;35.42;34.62;100749.45;93703;1196;93099;-70
2021/08/09 09:31:40;;;;;;;2.20;1.60;;;;;;;34.68;34.85;100751.54;93762;1189;80994;-63
2021/08/09 09:33:50;;;;;;;2.40;1.40;;;;;;;34.30;35.92;100751.43;93696;1203;99840;-63
2021/08/09 09:36:04;;;;;;;2.30;1.60;;;;;;;33.92;36.34;100750.48;93769;1196;86430;-70
2021/08/09 09:38:12;;;;;;;2.40;1.50;;;;;;;33.55;36.59;100757.20;93732;1203;93738;-69
2021/08/09 09:40:20;;;;;;;3.40;1.70;;;;;;;33.07;37.42;100756.30;93727;1203;79554;-66
2021/08/09 09:42:37;;;;;;;2.60;1.50;;;;;;;32.75;37.46;100757.84;93758;1203;81936;-65
2021/08/09 09:44:46;;;;;;;2.00;1.20;;;;;;;32.53;37.95;100757.98;93797;1196;99382;-65
2021/08/09 09:46:54;;;;;;;2.50;1.60;;;;;;;32.27;38.84;100759.48;93724;1203;88913;-65
2021/08/09 09:49:05;;;;;;;2.80;1.50;;;;;;;32.00;39.19;100755.45;93740;1203;93651;-65
2021/08/09 09:51:15;;;;;;;3.70;1.10;;;;;;;31.70;39.88;100754.48;93817;1203;79713;-61
2021/08/09 09:53:25;;;;;;;2.90;1.30;;;;;;;31.50;39.73;100754.13;93796;1200;80130;-61
2021/08/09 09:55:33;;;;;;;11.90;1.70;;;;;;;31.18;40.07;100754.86;93758;1203;100471;-64
2021/08/09 09:57:44;;;;;;;3.90;1.60;;;;;;;30.90;40.20;100757.23;93770;1202;88077;-66
2021/08/09 09:59:52;;;;;;;1.50;1.00;;;;;;;30.74;39.82;100761.33;93764;1196;92969;-60
2021/08/09 10:02:02;;;;;;;3.20;1.40;;;;;;;30.55;40.40;100764.03;93755;1203;80549;-60
2021/08/09 10:04:10;;;;;;;2.70;1.60;;;;;;;30.35;40.81;100759.38;93745;1203;82013;-61
2021/08/09 10:06:22;;;;;;;2.90;1.60;;;;;;;30.08;40.75;100760.53;93752;1203;100773;-61